Time;durP1;ratioP1;P1;durP2;ratioP2;P2;SDS_P1;SDS_P2;PMS_P1;PMS_P2;Temp;Humidity;BMP_temperature;BMP_pressure;BME280_temperature;BME280_humidity;BME280_pressure;Samples;Min_cycle;Max_cycle;Signal;HPM_P1;HPM_P2
2022/12/24 00:01:55;;;;;;;2.40;2.20;;;;;;;7.42;91.07;92418.72;2071289;69;20149;-76
2022/12/24 00:04:21;;;;;;;5.93;2.90;;;;;;;7.52;89.37;92439.03;2071212;69;20175;-76
2022/12/24 00:06:47;;;;;;;5.70;2.30;;;;;;;7.29;90.66;92433.97;2071069;69;20160;-76
2022/12/24 00:09:13;;;;;;;4.20;2.30;;;;;;;7.40;91.70;92449.41;2071262;69;20250;-76
2022/12/24 00:11:39;;;;;;;4.80;2.42;;;;;;;7.30;90.57;92443.09;2071182;69;20143;-76
2022/12/24 00:14:04;;;;;;;3.65;2.47;;;;;;;7.52;89.84;92439.03;2070858;69;20544;-76
2022/12/24 00:16:30;;;;;;;3.88;2.10;;;;;;;7.56;89.36;92447.72;2070367;69;20160;-75
2022/12/24 00:18:57;;;;;;;3.28;2.20;;;;;;;7.58;89.40;92438.69;2065033;69;20156;-77
2022/12/24 00:21:22;;;;;;;2.92;1.90;;;;;;;7.62;89.22;92430.56;2070030;69;20229;-76
2022/12/24 00:23:48;;;;;;;2.67;1.50;;;;;;;7.60;89.86;92424.81;2070848;69;20228;-76
2022/12/24 00:26:14;;;;;;;3.95;1.80;;;;;;;7.63;89.86;92429.97;2067234;69;20175;-75
2022/12/24 00:28:40;;;;;;;2.15;1.30;;;;;;;7.64;90.18;92430.69;2070644;69;20897;-76
2022/12/24 00:31:07;;;;;;;2.13;1.20;;;;;;;7.63;90.43;92415.22;2064553;69;20176;-75
2022/12/24 00:33:33;;;;;;;1.65;1.10;;;;;;;7.68;90.61;92428.16;2064158;69;20218;-76
2022/12/24 00:35:58;;;;;;;2.35;1.00;;;;;;;7.80;90.00;92437.38;2064050;69;20149;-76
2022/12/24 00:38:24;;;;;;;1.75;1.15;;;;;;;7.82;89.42;92428.38;2064177;69;20168;-76
2022/12/24 00:40:49;;;;;;;4.05;1.13;;;;;;;7.81;88.60;92413.63;2064102;69;20237;-76
2022/12/24 00:43:15;;;;;;;2.08;1.00;;;;;;;7.84;88.28;92417.31;2064336;69;20145;-77
2022/12/24 00:45:40;;;;;;;2.97;1.55;;;;;;;7.48;90.05;92424.00;2064474;69;20156;-76
2022/12/24 00:48:06;;;;;;;2.13;1.40;;;;;;;7.61;89.28;92426.31;2064482;69;20165;-77
2022/12/24 00:50:32;;;;;;;1.90;1.40;;;;;;;7.54;89.68;92432.81;2064441;69;20187;-77
2022/12/24 00:52:57;;;;;;;1.60;1.30;;;;;;;7.63;89.07;92432.75;2064165;69;20152;-75
2022/12/24 00:55:23;;;;;;;2.25;1.50;;;;;;;6.91;90.95;92462.81;2064161;69;20156;-77
2022/12/24 00:57:48;;;;;;;2.80;1.33;;;;;;;7.35;90.48;92461.66;2063916;69;20168;-76
2022/12/24 01:00:16;;;;;;;3.67;1.70;;;;;;;7.43;89.81;92473.41;2064321;69;20191;-75
2022/12/24 01:02:42;;;;;;;3.70;1.73;;;;;;;7.31;90.18;92475.38;2064857;69;20165;-76
2022/12/24 01:05:10;;;;;;;1.98;1.60;;;;;;;7.45;89.97;92490.34;2064764;69;20133;-74
2022/12/24 01:07:38;;;;;;;4.70;1.42;;;;;;;7.51;88.99;92493.56;2064734;69;20153;-76
2022/12/24 01:10:05;;;;;;;1.90;1.40;;;;;;;7.42;89.34;92499.19;2064595;69;20270;-75
2022/12/24 01:12:31;;;;;;;4.75;1.70;;;;;;;7.43;89.34;92515.44;2064684;69;20149;-74
2022/12/24 01:14:56;;;;;;;3.30;1.40;;;;;;;7.47;88.73;92524.13;2064700;69;20153;-76
2022/12/24 01:17:22;;;;;;;2.70;1.67;;;;;;;7.52;88.84;92547.53;2064825;69;20156;-76
2022/12/24 01:19:48;;;;;;;4.25;2.00;;;;;;;6.98;90.25;92551.50;2064814;69;20576;-76
2022/12/24 01:22:13;;;;;;;1.98;1.48;;;;;;;7.17;90.89;92561.19;2065052;69;20606;-75
2022/12/24 01:24:41;;;;;;;2.42;1.70;;;;;;;7.11;90.02;92551.03;2064650;69;20170;-74
2022/12/24 01:27:07;;;;;;;2.15;1.85;;;;;;;7.12;91.46;92551.75;2064573;69;20211;-75
2022/12/24 01:29:32;;;;;;;1.77;1.45;;;;;;;7.29;90.56;92554.38;2064573;69;20153;-76
2022/12/24 01:31:58;;;;;;;4.40;1.98;;;;;;;7.33;89.29;92549.06;2064575;69;20235;-76
2022/12/24 01:34:24;;;;;;;1.92;1.42;;;;;;;7.47;88.93;92554.16;2064939;69;20581;-76
2022/12/24 01:36:49;;;;;;;2.55;1.08;;;;;;;7.24;90.67;92533.03;2064630;69;20527;-77
2022/12/24 01:39:15;;;;;;;1.40;0.70;;;;;;;7.48;90.87;92530.44;2064734;69;20164;-76
2022/12/24 01:44:30;;;;;;;3.67;1.50;;;;;;;7.44;90.50;92541.38;2064580;69;20172;-74
2022/12/24 01:47:07;;;;;;;1.45;1.25;;;;;;;7.57;90.42;92560.50;2064962;69;20173;-76
2022/12/24 01:49:33;;;;;;;3.78;1.40;;;;;;;7.48;90.16;92564.06;2064614;69;20650;-77
2022/12/24 01:52:11;;;;;;;2.30;1.20;;;;;;;7.53;89.96;92577.75;2064566;69;20195;-76
2022/12/24 01:54:44;;;;;;;2.65;0.93;;;;;;;7.38;90.53;92603.31;2065147;69;20191;-75
2022/12/24 01:57:17;;;;;;;3.80;1.38;;;;;;;7.20;92.02;92613.22;2065308;69;20179;-74
2022/12/24 01:59:47;;;;;;;3.00;1.30;;;;;;;7.24;91.73;92602.28;2064839;69;20176;-76
2022/12/24 02:02:12;;;;;;;1.77;1.40;;;;;;;7.24;92.59;92594.63;2064418;69;20192;-75
2022/12/24 02:05:19;;;;;;;1.70;1.20;;;;;;;7.34;91.85;92591.81;2064410;69;20169;-76
2022/12/24 02:07:46;;;;;;;3.58;0.95;;;;;;;7.22;92.40;92593.75;2064385;69;20184;-76
2022/12/24 02:10:13;;;;;;;2.53;1.27;;;;;;;6.80;94.12;92609.69;2064543;69;20266;-75
2022/12/24 02:12:39;;;;;;;2.70;1.20;;;;;;;7.21;92.78;92618.22;2064294;69;20309;-76
2022/12/24 02:15:08;;;;;;;1.75;1.27;;;;;;;7.20;91.32;92630.75;2064885;69;20218;-77
2022/12/24 02:17:39;;;;;;;2.45;1.10;;;;;;;7.34;90.98;92628.22;2064467;69;20180;-76
2022/12/24 02:20:24;;;;;;;1.42;1.00;;;;;;;7.46;91.52;92628.31;2064376;69;20169;-77
2022/12/24 02:23:18;;;;;;;1.35;1.10;;;;;;;7.53;91.06;92622.56;2064516;69;20141;-76
2022/12/24 02:26:30;;;;;;;2.25;1.00;;;;;;;7.44;91.45;92617.72;2064470;69;20163;-76
2022/12/24 02:29:37;;;;;;;2.50;1.10;;;;;;;7.56;90.66;92618.59;2064448;69;20176;-76
2022/12/24 02:32:05;;;;;;;1.40;1.30;;;;;;;7.37;91.72;92616.53;2064565;69;20313;-75
2022/12/24 02:34:38;;;;;;;1.70;1.20;;;;;;;7.48;90.83;92604.00;2064515;69;20572;-75
2022/12/24 02:37:15;;;;;;;1.10;1.00;;;;;;;7.64;89.94;92616.34;2064123;69;20133;-75
2022/12/24 02:40:09;;;;;;;3.85;1.20;;;;;;;7.65;89.76;92603.06;2064619;69;20164;-75
2022/12/24 02:42:40;;;;;;;1.33;0.90;;;;;;;7.59;90.07;92613.84;2064328;69;20507;-75
2022/12/24 02:45:30;;;;;;;1.90;1.20;;;;;;;7.02;92.81;92612.63;2064536;69;20571;-75
2022/12/24 02:47:56;;;;;;;1.67;1.23;;;;;;;7.34;92.43;92628.22;2062843;69;20207;-75
2022/12/24 02:50:23;;;;;;;1.50;1.23;;;;;;;7.37;90.76;92622.16;2064741;69;20240;-75
2022/12/24 02:52:49;;;;;;;1.77;1.65;;;;;;;7.44;89.93;92622.59;2064708;69;20232;-75
2022/12/24 02:55:46;;;;;;;1.85;1.10;;;;;;;7.45;89.86;92615.66;2064424;69;20270;-76
2022/12/24 02:58:30;;;;;;;1.05;0.95;;;;;;;7.58;90.23;92623.59;2064783;69;20148;-75
2022/12/24 03:01:20;;;;;;;1.52;0.90;;;;;;;7.61;89.39;92600.00;2064756;69;20240;-75
2022/12/24 03:04:16;;;;;;;3.15;1.30;;;;;;;7.26;90.37;92605.22;2065059;69;20152;-75
2022/12/24 03:07:13;;;;;;;1.92;1.30;;;;;;;7.42;89.64;92608.44;2064813;69;20256;-75
2022/12/24 03:10:07;;;;;;;2.40;1.20;;;;;;;7.40;89.84;92623.03;2064643;69;20587;-75
2022/12/24 03:12:39;;;;;;;2.28;1.08;;;;;;;7.46;89.57;92623.47;2062997;69;20180;-77
2022/12/24 03:15:08;;;;;;;1.63;1.00;;;;;;;7.55;89.24;92631.09;2064707;69;20196;-76
2022/12/24 03:17:40;;;;;;;2.58;1.40;;;;;;;7.57;88.79;92633.34;2064696;69;20184;-76
2022/12/24 03:20:09;;;;;;;2.28;1.33;;;;;;;7.30;89.38;92634.25;2064693;69;20200;-76
2022/12/24 03:22:38;;;;;;;2.58;1.38;;;;;;;7.38;89.33;92634.84;2064942;69;20170;-75
2022/12/24 03:25:14;;;;;;;2.45;1.40;;;;;;;7.47;88.67;92632.59;2064571;69;20161;-76
2022/12/24 03:27:45;;;;;;;1.60;1.30;;;;;;;7.45;89.77;92629.66;2064767;69;20129;-76
2022/12/24 03:30:14;;;;;;;4.00;1.50;;;;;;;7.49;89.30;92629.94;2064839;69;20612;-75
2022/12/24 03:32:44;;;;;;;2.55;1.10;;;;;;;7.42;89.73;92633.63;2064468;69;20145;-76
2022/12/24 03:35:10;;;;;;;3.20;1.40;;;;;;;7.49;89.51;92636.28;2064179;69;20572;-76
2022/12/24 03:37:39;;;;;;;3.25;1.50;;;;;;;7.32;89.60;92642.78;2064898;69;20125;-76
2022/12/24 03:40:06;;;;;;;4.35;1.60;;;;;;;7.34;89.21;92637.34;2064572;69;20165;-76
2022/12/24 03:42:35;;;;;;;2.22;1.40;;;;;;;7.38;88.82;92632.03;2064667;69;20223;-76
2022/12/24 03:45:00;;;;;;;2.75;1.50;;;;;;;7.37;88.89;92633.34;2064861;69;20557;-76
2022/12/24 03:47:26;;;;;;;3.42;1.45;;;;;;;7.16;90.01;92627.66;2064488;69;20203;-76
2022/12/24 03:49:51;;;;;;;3.53;1.40;;;;;;;7.16;90.33;92641.63;2064554;69;20499;-76
2022/12/24 03:52:17;;;;;;;1.80;1.42;;;;;;;7.30;89.23;92639.84;2064532;69;20239;-74
2022/12/24 03:54:43;;;;;;;2.50;1.50;;;;;;;7.12;90.23;92639.28;2064472;69;20121;-74
2022/12/24 03:57:08;;;;;;;2.13;1.17;;;;;;;7.38;90.35;92640.44;2064469;69;20160;-76
2022/12/24 03:59:34;;;;;;;2.25;1.20;;;;;;;7.26;90.30;92647.97;2064688;69;20631;-76
2022/12/24 04:01:59;;;;;;;1.10;1.00;;;;;;;7.34;90.45;92647.81;2064467;69;20627;-75
2022/12/24 04:04:25;;;;;;;2.08;1.00;;;;;;;7.37;90.21;92649.41;2064479;69;20145;-75
2022/12/24 04:06:51;;;;;;;3.53;1.30;;;;;;;7.45;90.31;92641.59;2064532;69;20232;-76
2022/12/24 04:09:16;;;;;;;3.85;1.50;;;;;;;6.90;90.45;92631.34;2063826;69;20173;-76
2022/12/24 04:11:42;;;;;;;2.03;1.20;;;;;;;6.78;89.78;92629.13;2064434;69;20175;-77
2022/12/24 04:14:08;;;;;;;1.80;1.40;;;;;;;6.97;89.54;92645.19;2064567;69;20157;-75
2022/12/24 04:16:33;;;;;;;4.18;1.52;;;;;;;7.08;89.31;92643.84;2064210;69;20203;-74
2022/12/24 04:18:59;;;;;;;3.42;1.33;;;;;;;7.18;88.54;92655.78;2063722;69;20599;-76
2022/12/24 04:21:24;;;;;;;2.20;1.40;;;;;;;7.16;88.77;92669.63;2064380;69;20151;-75
2022/12/24 04:23:50;;;;;;;3.30;1.50;;;;;;;7.03;89.61;92684.81;2064564;69;20152;-75
2022/12/24 04:26:16;;;;;;;1.65;1.38;;;;;;;7.08;89.53;92683.03;2064520;69;20148;-76
2022/12/24 04:28:42;;;;;;;2.10;1.40;;;;;;;7.16;88.83;92686.44;2064673;69;20156;-76
2022/12/24 04:31:12;;;;;;;2.40;1.52;;;;;;;7.00;88.36;92677.56;2064640;69;20191;-76
2022/12/24 04:33:38;;;;;;;3.35;1.60;;;;;;;7.05;88.95;92673.75;2064523;69;20214;-76
2022/12/24 04:36:05;;;;;;;3.90;1.65;;;;;;;7.08;88.54;92666.25;2064518;69;20156;-76
2022/12/24 04:38:31;;;;;;;2.35;1.50;;;;;;;7.16;88.49;92678.03;2065080;69;20174;-77
2022/12/24 04:41:06;;;;;;;2.25;1.45;;;;;;;7.17;88.09;92676.72;2065009;69;20247;-77
2022/12/24 04:43:32;;;;;;;4.68;1.50;;;;;;;7.14;87.79;92672.28;2064451;69;20622;-76
2022/12/24 04:46:19;;;;;;;3.03;1.45;;;;;;;6.55;90.17;92657.53;2065159;69;20157;-76
2022/12/24 04:48:47;;;;;;;2.95;1.80;;;;;;;6.85;90.45;92656.22;2065013;69;20624;-77
2022/12/24 04:51:14;;;;;;;2.78;1.90;;;;;;;7.04;89.54;92651.94;2064988;69;20184;-76
2022/12/24 04:53:40;;;;;;;4.22;1.70;;;;;;;7.14;89.12;92653.41;2064973;69;20284;-76
2022/12/24 04:56:10;;;;;;;1.65;1.20;;;;;;;7.17;88.44;92657.09;2064853;69;20156;-76
2022/12/24 04:58:36;;;;;;;3.88;1.70;;;;;;;7.22;88.70;92660.94;2064990;69;20140;-76
2022/12/24 05:01:06;;;;;;;3.35;2.00;;;;;;;7.20;88.35;92653.13;2064940;69;20547;-76
2022/12/24 05:03:33;;;;;;;2.40;2.00;;;;;;;7.25;88.06;92643.69;2065137;69;20157;-75
2022/12/24 05:06:07;;;;;;;2.55;1.77;;;;;;;6.93;87.83;92642.09;2065304;69;20152;-75
2022/12/24 05:08:33;;;;;;;5.75;4.10;;;;;;;6.47;90.14;92647.78;2065196;69;20619;-76
2022/12/24 05:10:59;;;;;;;4.55;2.60;;;;;;;6.81;89.57;92639.13;2064308;69;20145;-76
2022/12/24 05:13:25;;;;;;;3.85;3.05;;;;;;;6.90;88.64;92646.06;2064969;69;20163;-76
2022/12/24 05:15:51;;;;;;;5.78;3.38;;;;;;;6.92;88.01;92640.63;2064947;69;20196;-76
2022/12/24 05:18:18;;;;;;;5.47;3.25;;;;;;;6.90;88.15;92640.47;2064934;69;20245;-76
2022/12/24 05:20:43;;;;;;;5.00;3.20;;;;;;;6.99;88.37;92650.91;2064887;69;20165;-76
2022/12/24 05:26:23;;;;;;;1.00;0.70;;;;;;;7.16;88.56;92671.72;2064999;69;20187;-76
2022/12/24 05:28:54;;;;;;;5.45;2.92;;;;;;;6.90;88.33;92660.06;2065032;69;20148;-76
2022/12/24 05:31:22;;;;;;;4.15;2.88;;;;;;;6.73;88.03;92658.13;2064201;69;20198;-76
2022/12/24 05:33:47;;;;;;;3.05;2.67;;;;;;;6.81;87.87;92655.19;2064895;69;20146;-76
2022/12/24 05:36:14;;;;;;;4.47;3.10;;;;;;;6.90;87.83;92662.84;2064733;69;20133;-76
2022/12/24 05:38:40;;;;;;;4.43;3.22;;;;;;;6.95;88.11;92666.69;2064916;69;20240;-76
2022/12/24 05:41:06;;;;;;;6.63;3.17;;;;;;;7.01;88.21;92655.91;2064758;69;20165;-76
2022/12/24 05:43:31;;;;;;;5.93;3.50;;;;;;;7.03;88.05;92670.06;2064796;69;20207;-76
2022/12/24 05:45:59;;;;;;;4.53;3.22;;;;;;;6.67;88.17;92677.25;2064761;69;20168;-76
2022/12/24 05:48:25;;;;;;;6.63;3.63;;;;;;;6.68;88.88;92678.72;2064072;69;20208;-76
2022/12/24 05:50:51;;;;;;;8.23;5.13;;;;;;;6.61;88.72;92694.31;2064713;69;20180;-76
2022/12/24 05:53:16;;;;;;;7.57;4.55;;;;;;;6.71;88.62;92693.59;2064145;69;20198;-76
2022/12/24 05:55:42;;;;;;;7.72;4.55;;;;;;;6.46;88.83;92702.97;2064058;69;20153;-76
2022/12/24 05:58:07;;;;;;;8.98;5.15;;;;;;;6.53;88.73;92702.09;2064700;69;20133;-76
2022/12/24 06:00:33;;;;;;;9.43;5.65;;;;;;;6.50;88.40;92719.31;2064633;69;20151;-76
2022/12/24 06:02:58;;;;;;;9.45;4.63;;;;;;;6.51;89.14;92721.53;2064136;69;20248;-76
2022/12/24 06:05:24;;;;;;;9.05;5.50;;;;;;;6.65;88.13;92732.31;2064684;69;20211;-76
2022/12/24 06:07:50;;;;;;;11.50;6.90;;;;;;;6.73;88.19;92719.66;2064152;69;20160;-77
2022/12/24 06:10:18;;;;;;;7.80;6.45;;;;;;;6.75;87.93;92714.22;2064588;69;20481;-77
2022/12/24 06:12:44;;;;;;;10.27;6.25;;;;;;;6.76;87.62;92701.72;2064757;69;20141;-76
2022/12/24 06:15:10;;;;;;;108.25;42.53;;;;;;;6.82;87.64;92707.00;2064706;69;20636;-75
2022/12/24 06:17:35;;;;;;;353.95;122.18;;;;;;;6.81;88.02;92713.94;2064652;69;20145;-77
2022/12/24 06:20:01;;;;;;;16.65;9.55;;;;;;;6.73;88.97;92718.94;2064664;69;20176;-76
2022/12/24 06:22:27;;;;;;;33.75;15.10;;;;;;;6.78;88.81;92713.06;2064605;69;20157;-76
2022/12/24 06:24:52;;;;;;;100.50;37.78;;;;;;;6.90;88.15;92718.81;2064672;69;20163;-77
2022/12/24 06:27:18;;;;;;;140.50;49.80;;;;;;;6.85;88.14;92717.03;2064698;69;20144;-78
2022/12/24 06:29:44;;;;;;;94.75;34.05;;;;;;;6.90;87.98;92715.28;2062431;69;20157;-76
2022/12/24 06:32:09;;;;;;;33.92;16.23;;;;;;;6.31;90.46;92714.41;2068122;69;20148;-78
2022/12/24 06:34:35;;;;;;;34.45;17.15;;;;;;;6.57;89.35;92724.06;2068166;69;20606;-76
2022/12/24 06:37:01;;;;;;;33.35;15.05;;;;;;;6.68;88.72;92737.47;2068114;69;20179;-76
2022/12/24 06:39:27;;;;;;;29.27;14.77;;;;;;;6.70;88.29;92745.28;2068018;69;20239;-76
2022/12/24 06:41:52;;;;;;;82.90;42.95;;;;;;;6.68;88.33;92737.47;2068222;69;20155;-76
2022/12/24 06:44:18;;;;;;;88.35;45.53;;;;;;;6.75;88.06;92739.41;2068180;69;20231;-76
2022/12/24 06:46:44;;;;;;;45.30;24.30;;;;;;;6.81;87.32;92748.25;2068251;69;20177;-78
2022/12/24 06:49:09;;;;;;;41.70;23.40;;;;;;;6.81;87.20;92753.13;2068264;69;20160;-76
2022/12/24 06:51:35;;;;;;;44.92;22.80;;;;;;;6.80;87.45;92754.44;2068328;69;20168;-76
2022/12/24 06:54:00;;;;;;;47.90;25.48;;;;;;;6.81;87.68;92759.44;2068004;69;20239;-76
2022/12/24 06:56:26;;;;;;;43.05;24.25;;;;;;;6.82;87.29;92746.94;2068287;69;20228;-76
2022/12/24 06:58:55;;;;;;;37.85;22.73;;;;;;;6.92;87.23;92741.38;2067264;69;20504;-77
2022/12/24 07:01:23;;;;;;;37.15;22.50;;;;;;;6.89;87.58;92745.34;2068088;69;20152;-78
2022/12/24 07:03:49;;;;;;;33.47;22.08;;;;;;;6.92;87.45;92755.38;2067519;69;20152;-77
2022/12/24 07:06:25;;;;;;;40.63;23.30;;;;;;;6.65;87.88;92755.44;2068116;69;20160;-77
2022/12/24 07:08:51;;;;;;;42.80;26.02;;;;;;;6.76;87.86;92756.94;2067652;69;20220;-77
2022/12/24 07:11:17;;;;;;;37.30;20.88;;;;;;;6.72;87.73;92762.97;2067556;69;20219;-78
2022/12/24 07:13:42;;;;;;;35.00;21.23;;;;;;;6.69;88.43;92774.56;2068048;69;20137;-77
2022/12/24 07:16:08;;;;;;;40.92;22.02;;;;;;;6.57;88.17;92760.41;2067516;69;20218;-81
2022/12/24 07:18:34;;;;;;;35.78;19.95;;;;;;;6.66;87.80;92756.19;2068235;69;20148;-78
2022/12/24 07:21:03;;;;;;;35.80;19.15;;;;;;;6.69;87.94;92775.34;2068129;69;20148;-78
2022/12/24 07:23:30;;;;;;;26.50;15.77;;;;;;;6.71;87.44;92774.75;2068074;69;20156;-78
2022/12/24 07:26:00;;;;;;;24.95;14.80;;;;;;;6.73;87.45;92798.00;2067933;69;20168;-76
2022/12/24 07:28:25;;;;;;;28.13;15.38;;;;;;;6.72;87.25;92802.13;2068195;69;20251;-77
2022/12/24 07:30:52;;;;;;;33.05;16.67;;;;;;;6.44;88.49;92811.88;2065331;69;20211;-77
2022/12/24 07:33:18;;;;;;;113.30;38.50;;;;;;;6.44;87.85;92805.56;2064732;69;20145;-77
2022/12/24 07:35:43;;;;;;;67.53;28.45;;;;;;;6.50;87.52;92814.41;2064689;69;20144;-78
2022/12/24 07:38:09;;;;;;;59.88;27.27;;;;;;;6.58;87.59;92821.34;2064647;69;20634;-79
2022/12/24 07:40:34;;;;;;;66.90;31.80;;;;;;;6.68;87.37;92801.09;2061100;69;20267;-78
2022/12/24 07:43:00;;;;;;;78.38;40.25;;;;;;;6.60;87.82;92818.00;2064625;69;20148;-78
2022/12/24 07:45:26;;;;;;;77.85;44.55;;;;;;;6.71;88.02;92825.09;2064744;69;20236;-77
2022/12/24 07:47:52;;;;;;;63.30;32.30;;;;;;;6.81;87.34;92809.09;2064715;69;20267;-77
2022/12/24 07:50:18;;;;;;;61.03;34.17;;;;;;;6.54;88.55;92811.91;2064715;69;20133;-76
2022/12/24 07:52:43;;;;;;;83.35;48.22;;;;;;;6.60;89.29;92826.38;2064657;69;20141;-78
2022/12/24 07:55:09;;;;;;;80.85;47.88;;;;;;;6.79;88.48;92826.47;2064573;69;20164;-77
2022/12/24 07:57:34;;;;;;;76.07;45.38;;;;;;;6.92;87.86;92830.94;2064676;69;20272;-77
2022/12/24 08:00:00;;;;;;;74.88;45.88;;;;;;;6.94;87.56;92824.75;2064787;69;20145;-77
2022/12/24 08:02:25;;;;;;;73.45;43.92;;;;;;;6.92;87.51;92821.78;2064611;69;20144;-75
2022/12/24 08:04:51;;;;;;;54.60;31.75;;;;;;;6.40;88.25;92827.59;2064643;69;20224;-76
2022/12/24 08:07:17;;;;;;;34.08;19.58;;;;;;;6.52;89.25;92840.47;2064769;69;20149;-76
2022/12/24 08:09:44;;;;;;;31.20;20.10;;;;;;;6.62;88.07;92826.53;2064607;69;20149;-76
2022/12/24 08:12:10;;;;;;;34.17;18.65;;;;;;;6.77;87.32;92833.94;2064687;69;20151;-76
2022/12/24 08:14:36;;;;;;;33.53;20.80;;;;;;;6.84;87.56;92841.50;2064142;69;20168;-76
2022/12/24 08:17:02;;;;;;;32.75;19.25;;;;;;;6.87;87.48;92857.09;2064548;69;20229;-75
2022/12/24 08:19:27;;;;;;;34.05;20.63;;;;;;;6.91;87.31;92870.69;2064505;69;20141;-79
2022/12/24 08:21:53;;;;;;;39.15;23.83;;;;;;;6.90;87.44;92880.41;2064529;69;20477;-80
2022/12/24 08:24:18;;;;;;;38.17;23.48;;;;;;;6.94;87.78;92883.50;2064406;69;20147;-75
2022/12/24 08:26:44;;;;;;;45.38;27.75;;;;;;;7.02;87.62;92890.47;2064543;69;20303;-74
2022/12/24 08:29:10;;;;;;;49.28;31.30;;;;;;;7.11;87.21;92886.97;2064616;69;20194;-75
2022/12/24 08:31:36;;;;;;;49.83;31.45;;;;;;;7.23;87.07;92892.75;2064649;69;20137;-75
2022/12/24 08:34:06;;;;;;;51.72;31.98;;;;;;;7.29;87.29;92901.63;2064497;69;20148;-74
2022/12/24 08:36:33;;;;;;;53.67;32.17;;;;;;;7.33;87.78;92892.78;2064664;69;20156;-74
2022/12/24 08:39:02;;;;;;;51.03;31.67;;;;;;;7.34;87.15;92881.00;2064412;69;20228;-75
2022/12/24 08:41:31;;;;;;;47.47;30.17;;;;;;;7.35;87.68;92890.88;2064746;69;20184;-75
2022/12/24 08:43:57;;;;;;;44.80;27.20;;;;;;;7.32;87.91;92886.44;2064616;69;20168;-75
2022/12/24 08:46:23;;;;;;;43.65;22.85;;;;;;;7.46;87.87;92883.97;2064596;69;20149;-76
2022/12/24 08:48:48;;;;;;;29.40;20.50;;;;;;;7.54;88.56;92895.78;2064649;69;20499;-76
2022/12/24 08:51:14;;;;;;;55.55;27.45;;;;;;;6.77;89.02;92901.09;2064707;69;20177;-77
2022/12/24 08:53:40;;;;;;;43.85;24.83;;;;;;;7.17;88.63;92897.16;2064533;69;20580;-78
2022/12/24 08:56:08;;;;;;;44.65;26.75;;;;;;;7.20;87.91;92904.41;2064450;69;20271;-78
2022/12/24 08:58:33;;;;;;;47.20;27.17;;;;;;;7.27;86.99;92904.25;2064616;69;20148;-75
2022/12/24 09:01:00;;;;;;;43.45;24.88;;;;;;;7.26;86.97;92897.19;2064439;69;20148;-74
2022/12/24 09:03:26;;;;;;;40.13;25.23;;;;;;;7.31;86.52;92910.16;2064481;69;20520;-74
2022/12/24 09:05:55;;;;;;;41.15;24.77;;;;;;;7.44;87.25;92916.69;2064386;69;20140;-77
2022/12/24 09:08:20;;;;;;;42.85;25.75;;;;;;;7.50;86.68;92919.94;2064693;69;20148;-74
2022/12/24 09:10:46;;;;;;;39.65;25.52;;;;;;;7.48;87.48;92914.19;2064309;69;20144;-74
2022/12/24 09:13:11;;;;;;;42.78;24.52;;;;;;;7.61;86.72;92911.72;2063943;69;20152;-74
2022/12/24 09:15:37;;;;;;;49.35;30.63;;;;;;;7.73;86.91;92916.75;2064431;69;20244;-75
2022/12/24 09:18:03;;;;;;;63.30;39.72;;;;;;;7.77;87.33;92909.38;2064371;69;20247;-75
2022/12/24 09:20:29;;;;;;;55.60;35.65;;;;;;;7.93;86.94;92921.06;2064289;69;20482;-74
2022/12/24 09:22:54;;;;;;;107.85;69.97;;;;;;;8.06;86.16;92919.88;2064838;69;20156;-78
2022/12/24 09:25:20;;;;;;;70.05;45.85;;;;;;;8.12;86.89;92935.09;2064885;69;20228;-77
2022/12/24 09:27:45;;;;;;;53.05;35.28;;;;;;;8.22;87.58;92915.47;2064976;69;20463;-78
2022/12/24 09:30:12;;;;;;;35.72;22.85;;;;;;;8.26;86.54;92921.38;2064986;69;20168;-78
2022/12/24 09:32:37;;;;;;;27.77;19.23;;;;;;;8.39;86.38;92934.25;2064403;69;20126;-78
2022/12/24 09:35:03;;;;;;;30.20;19.65;;;;;;;8.40;85.40;92930.84;2064422;69;20135;-77
2022/12/24 09:37:29;;;;;;;30.10;17.60;;;;;;;8.43;85.60;92936.59;2064968;69;20149;-78
2022/12/24 09:39:55;;;;;;;38.85;22.75;;;;;;;8.66;85.46;92931.25;2064749;69;20488;-77
2022/12/24 09:42:32;;;;;;;31.33;20.35;;;;;;;8.83;84.30;92933.88;2065032;69;20141;-76
2022/12/24 09:45:17;;;;;;;25.10;16.13;;;;;;;9.14;85.39;92939.56;2064953;69;20322;-77
2022/12/24 09:47:42;;;;;;;19.25;12.13;;;;;;;9.15;83.98;92940.28;2064990;69;20199;-78
2022/12/24 09:50:40;;;;;;;16.00;10.77;;;;;;;9.14;83.08;92921.97;2064968;69;20149;-77
2022/12/24 09:53:33;;;;;;;13.15;8.90;;;;;;;9.18;83.52;92921.50;2064952;69;20161;-79
2022/12/24 09:56:04;;;;;;;19.95;12.93;;;;;;;9.04;83.74;92919.19;2064730;69;20161;-76
2022/12/24 09:58:36;;;;;;;16.85;12.45;;;;;;;8.97;83.02;92931.31;2064971;69;20153;-79
2022/12/24 10:01:02;;;;;;;19.13;13.85;;;;;;;9.04;84.03;92924.06;2064868;69;20240;-75
2022/12/24 10:03:28;;;;;;;15.02;10.85;;;;;;;9.04;83.55;92935.31;2064852;69;20149;-77
2022/12/24 10:06:18;;;;;;;16.02;10.82;;;;;;;8.97;84.43;92922.91;2065076;69;20211;-75
2022/12/24 10:09:02;;;;;;;15.65;10.55;;;;;;;9.01;84.10;92916.84;2065376;69;20139;-76
2022/12/24 10:11:46;;;;;;;15.25;10.20;;;;;;;8.99;84.02;92919.50;2065158;69;20148;-76
2022/12/24 10:14:54;;;;;;;13.65;9.18;;;;;;;8.99;84.41;92913.91;2064574;69;20217;-75
2022/12/24 10:17:28;;;;;;;12.52;8.48;;;;;;;9.14;84.08;92908.66;2064934;69;20164;-75
2022/12/24 10:20:04;;;;;;;12.38;8.05;;;;;;;9.21;82.90;92912.63;2064706;69;20323;-75
2022/12/24 10:22:51;;;;;;;10.55;7.40;;;;;;;9.19;82.26;92901.25;2064912;69;20210;-77
2022/12/24 10:25:25;;;;;;;12.73;7.60;;;;;;;9.04;82.80;92905.16;2064726;69;20145;-74
2022/12/24 10:27:53;;;;;;;13.40;8.77;;;;;;;8.99;83.27;92911.81;2064878;69;20196;-75
2022/12/24 10:30:21;;;;;;;10.68;7.60;;;;;;;8.98;82.51;92921.59;2066292;69;20595;-77
2022/12/24 10:32:49;;;;;;;11.45;7.50;;;;;;;9.01;83.46;92908.41;2068108;69;20133;-72
2022/12/24 10:35:21;;;;;;;10.80;7.78;;;;;;;9.11;82.72;92900.69;2068052;69;20161;-75
2022/12/24 10:37:49;;;;;;;10.82;8.20;;;;;;;9.18;82.47;92893.44;2068177;69;20224;-77
2022/12/24 10:40:36;;;;;;;13.77;7.82;;;;;;;8.96;82.30;92892.63;2067954;69;20160;-75
2022/12/24 10:43:13;;;;;;;12.38;8.38;;;;;;;9.06;82.46;92904.53;2068240;69;20136;-76
2022/12/24 10:45:43;;;;;;;12.52;8.60;;;;;;;8.95;82.90;92886.25;2068340;69;20137;-76
2022/12/24 10:48:17;;;;;;;13.18;8.35;;;;;;;9.19;82.20;92880.84;2068254;69;20662;-76
2022/12/24 10:51:05;;;;;;;11.00;7.72;;;;;;;8.95;82.55;92863.81;2068277;69;20172;-76
2022/12/24 10:53:39;;;;;;;13.85;9.35;;;;;;;8.87;82.71;92868.84;2068088;69;20575;-73
2022/12/24 10:56:08;;;;;;;21.35;12.57;;;;;;;9.08;82.96;92885.03;2070257;69;20160;-77
2022/12/24 10:58:34;;;;;;;24.02;14.27;;;;;;;9.02;82.58;92884.59;2071395;69;20145;-78
2022/12/24 11:01:01;;;;;;;14.38;9.98;;;;;;;9.06;82.02;92882.81;2070626;69;20163;-75
2022/12/24 11:03:34;;;;;;;15.52;9.52;;;;;;;9.10;81.83;92887.97;2066087;69;20603;-78
2022/12/24 11:06:02;;;;;;;14.55;9.57;;;;;;;9.18;81.95;92896.97;2066207;69;20160;-76
2022/12/24 11:08:28;;;;;;;15.32;8.80;;;;;;;9.10;81.99;92894.31;2066404;69;20159;-75
2022/12/24 11:11:03;;;;;;;10.68;7.78;;;;;;;9.02;82.12;92890.22;2064499;69;20201;-75
2022/12/24 11:13:36;;;;;;;13.98;8.73;;;;;;;8.91;83.86;92895.13;2065615;69;20196;-78
2022/12/24 11:16:38;;;;;;;13.38;8.75;;;;;;;8.63;84.06;92904.38;2065987;69;20192;-77
2022/12/24 11:19:14;;;;;;;19.65;13.45;;;;;;;8.66;83.81;92886.34;2064749;69;20292;-76
2022/12/24 11:21:40;;;;;;;18.60;12.80;;;;;;;8.59;84.57;92882.38;2065481;69;20237;-77
2022/12/24 11:24:11;;;;;;;16.75;10.40;;;;;;;8.83;84.44;92888.22;2065275;69;20152;-77
2022/12/24 11:26:39;;;;;;;17.38;11.77;;;;;;;8.70;83.44;92881.00;2065787;69;20176;-77
2022/12/24 11:29:21;;;;;;;23.02;14.27;;;;;;;8.52;84.23;92885.31;2065293;69;20153;-77
2022/12/24 11:31:51;;;;;;;18.20;12.13;;;;;;;8.65;84.06;92888.41;2072988;69;20143;-76
2022/12/24 11:34:17;;;;;;;15.07;10.68;;;;;;;8.56;83.71;92891.97;2074778;69;20144;-76
2022/12/24 11:36:43;;;;;;;23.38;14.48;;;;;;;8.72;83.70;92886.78;2073140;69;20240;-76
2022/12/24 11:39:19;;;;;;;22.02;14.25;;;;;;;8.85;83.49;92889.09;2072898;69;20239;-75
2022/12/24 11:41:45;;;;;;;22.25;13.68;;;;;;;8.97;83.34;92872.34;2071969;69;20192;-76
2022/12/24 11:44:11;;;;;;;18.55;11.80;;;;;;;8.92;83.02;92873.41;2072218;69;20240;-76
2022/12/24 11:46:40;;;;;;;15.30;11.55;;;;;;;9.13;82.78;92878.38;2072825;69;20186;-74
2022/12/24 11:49:11;;;;;;;16.15;11.25;;;;;;;9.22;82.76;92874.78;2073015;69;20673;-73
2022/12/24 11:51:39;;;;;;;15.85;10.15;;;;;;;9.21;82.25;92873.31;2072690;69;20162;-75